createdAt,value
2023-04-20T00:04:05.975Z,9.47
2023-04-20T00:09:09.802Z,9.41
2023-04-20T00:14:12.894Z,9.35
2023-04-20T00:19:16.437Z,9.26
2023-04-20T00:24:20.339Z,9.20
2023-04-20T00:29:23.802Z,9.15
2023-04-20T00:34:27.074Z,9.13
2023-04-20T00:39:30.204Z,9.10
2023-04-20T00:44:33.957Z,9.08
2023-04-20T00:49:40.194Z,9.06
2023-04-20T00:54:43.594Z,9.10
2023-04-20T00:59:46.818Z,9.13
2023-04-20T01:04:59.908Z,9.19
2023-04-20T01:10:09.699Z,9.26
2023-04-20T01:15:26.410Z,9.33
2023-04-20T01:20:29.883Z,9.40
2023-04-20T01:25:33.248Z,9.46
2023-04-20T01:30:46.400Z,9.53
2023-04-20T01:35:49.818Z,9.61
2023-04-20T01:40:54.473Z,9.66
2023-04-20T01:46:26.034Z,9.69
2023-04-20T01:51:29.555Z,9.70
2023-04-20T01:56:41.640Z,9.70
2023-04-20T02:01:45.146Z,9.69
2023-04-20T02:07:16.740Z,9.69
2023-04-20T02:12:20.650Z,9.69
2023-04-20T02:17:26.684Z,9.71
2023-04-20T02:22:30.056Z,9.72
2023-04-20T02:27:46.768Z,9.70
2023-04-20T02:32:50.063Z,9.69
2023-04-20T02:37:53.969Z,9.68
2023-04-20T02:42:59.554Z,9.66
2023-04-20T02:48:03.970Z,9.65
2023-04-20T02:53:07.874Z,9.57
2023-04-20T02:58:15.477Z,9.51
2023-04-20T03:03:37.595Z,9.47
2023-04-20T03:08:51.271Z,9.43
2023-04-20T03:14:27.094Z,9.41
2023-04-20T03:19:51.592Z,9.39
2023-04-20T03:25:06.638Z,9.37
2023-04-20T03:30:33.131Z,9.37
2023-04-20T03:35:59.881Z,9.34
2023-04-20T03:41:10.935Z,9.34
2023-04-20T03:46:23.982Z,9.36
2023-04-20T03:51:27.309Z,9.37
2023-04-20T03:56:32.860Z,9.38
2023-04-20T04:01:39.144Z,9.38
2023-04-20T04:06:52.245Z,9.37
2023-04-20T04:11:55.863Z,9.38
2023-04-20T04:17:00.488Z,9.41
2023-04-20T04:22:04.439Z,9.44
2023-04-20T04:27:11.982Z,9.51
2023-04-20T04:37:43.248Z,9.67
2023-04-20T04:42:48.386Z,9.76
2023-04-20T04:47:54.116Z,9.85
2023-04-20T04:52:57.722Z,9.94
2023-04-20T04:58:01.810Z,10.05
2023-04-20T05:03:08.192Z,10.22
2023-04-20T05:08:12.357Z,10.43
2023-04-20T05:13:15.903Z,10.60
2023-04-20T05:18:19.284Z,10.78
2023-04-20T05:23:22.404Z,11.02
2023-04-20T05:28:28.027Z,11.31
2023-04-20T05:33:31.405Z,11.49
2023-04-20T05:38:34.613Z,11.52
2023-04-20T05:43:37.738Z,11.63
2023-04-20T05:48:43.419Z,11.85
2023-04-20T05:53:46.821Z,12.50
2023-04-20T05:58:50.249Z,13.22
2023-04-20T06:03:53.521Z,14.30
2023-04-20T06:08:58.264Z,14.90
2023-04-20T06:14:01.494Z,14.93
2023-04-20T06:19:12.190Z,14.79
2023-04-20T06:24:15.549Z,15.14
2023-04-20T06:29:19.234Z,15.61
2023-04-20T06:34:22.591Z,15.68
2023-04-20T06:39:28.839Z,15.43
2023-04-20T06:44:32.377Z,15.53
2023-04-20T06:49:37.741Z,16.00
2023-04-20T06:54:40.896Z,16.28
2023-04-20T06:59:44.136Z,16.43
2023-04-20T07:04:47.598Z,16.58
2023-04-20T07:09:50.946Z,16.57
2023-04-20T07:14:55.027Z,16.66
2023-04-20T07:19:59.526Z,16.74
2023-04-20T07:25:07.555Z,16.73
2023-04-20T07:30:12.187Z,16.91
2023-04-20T07:35:25.903Z,17.11
2023-04-20T07:40:29.172Z,17.21
2023-04-20T07:45:42.827Z,17.31
2023-04-20T07:50:48.608Z,17.36
2023-04-20T07:55:51.682Z,17.27
2023-04-20T08:00:54.753Z,17.29
2023-04-20T08:06:01.057Z,17.42
2023-04-20T08:11:04.666Z,17.50
2023-04-20T08:16:10.698Z,17.51
2023-04-20T08:21:14.695Z,17.60
2023-04-20T08:26:18.730Z,17.62
2023-04-20T08:31:22.610Z,17.79
2023-04-20T08:36:28.140Z,17.92
2023-04-20T08:41:31.421Z,18.04
2023-04-20T08:46:35.401Z,18.18
2023-04-20T08:51:40.196Z,18.32
2023-04-20T08:56:45.841Z,18.46
2023-04-20T09:01:49.054Z,18.40
2023-04-20T09:06:54.422Z,18.44
2023-04-20T09:12:07.535Z,18.46
2023-04-20T09:17:14.768Z,18.42
2023-04-20T09:22:18.127Z,18.25
2023-04-20T09:27:23.190Z,18.21
2023-04-20T09:32:28.848Z,18.21
2023-04-20T09:37:32.387Z,18.36
2023-04-20T09:42:39.774Z,18.45
2023-04-20T09:47:44.671Z,18.62
2023-04-20T09:52:49.585Z,18.70
2023-04-20T09:57:54.309Z,18.91
2023-04-20T10:03:00.640Z,19.00
2023-04-20T10:08:06.401Z,19.09
2023-04-20T10:13:09.572Z,18.95
2023-04-20T10:18:24.742Z,19.08
2023-04-20T10:23:28.106Z,19.19
2023-04-20T10:28:41.849Z,19.25
2023-04-20T10:33:56.237Z,19.06
2023-04-20T10:39:00.675Z,19.02
2023-04-20T10:44:10.410Z,19.21
2023-04-20T10:49:13.886Z,19.17
2023-04-20T10:54:18.586Z,19.25
2023-04-20T10:59:23.919Z,19.41
2023-04-20T11:04:34.520Z,19.55
2023-04-20T11:09:43.060Z,19.51
2023-04-20T11:14:58.266Z,19.44
2023-04-20T11:20:19.679Z,19.45
2023-04-20T11:25:22.976Z,19.40
2023-04-20T11:30:26.196Z,19.33
2023-04-20T11:35:37.207Z,19.43
2023-04-20T11:40:40.552Z,19.50
2023-04-20T11:45:43.629Z,19.34
2023-04-20T11:50:46.833Z,19.29
2023-04-20T11:55:49.945Z,19.57
2023-04-20T12:00:53.053Z,19.83
2023-04-20T12:05:56.316Z,20.11
2023-04-20T12:10:59.443Z,20.24
2023-04-20T12:16:02.653Z,20.30
2023-04-20T12:21:05.938Z,20.29
2023-04-20T12:26:09.518Z,20.11
2023-04-20T12:31:12.924Z,20.01
2023-04-20T12:36:19.140Z,20.01
2023-04-20T12:41:23.733Z,19.96
2023-04-20T12:46:27.029Z,19.82
2023-04-20T12:51:30.355Z,19.68
2023-04-20T12:56:33.453Z,19.56
2023-04-20T13:01:36.583Z,19.43
2023-04-20T13:06:39.788Z,19.34
2023-04-20T13:11:42.969Z,19.39
2023-04-20T13:16:46.167Z,19.68
2023-04-20T13:21:49.522Z,19.94
2023-04-20T13:26:58.478Z,20.14
2023-04-20T13:32:01.661Z,20.21
2023-04-20T13:37:04.914Z,20.30
2023-04-20T13:42:08.032Z,20.47
2023-04-20T13:47:11.452Z,20.52
2023-04-20T13:52:14.642Z,20.34
2023-04-20T13:57:17.868Z,20.13
2023-04-20T14:02:21.667Z,20.01
2023-04-20T14:07:25.159Z,19.90
2023-04-20T14:12:29.069Z,19.92
2023-04-20T14:17:32.449Z,20.14
2023-04-20T14:22:37.010Z,20.38
2023-04-20T14:27:40.240Z,20.43
2023-04-20T14:32:54.328Z,20.35
2023-04-20T14:37:57.456Z,20.17
2023-04-20T14:43:00.732Z,20.07
2023-04-20T14:48:04.121Z,20.00
2023-04-20T14:53:07.632Z,19.99
2023-04-20T14:58:11.078Z,20.16
2023-04-20T15:03:14.337Z,20.23
2023-04-20T15:08:18.050Z,20.19
2023-04-20T15:13:21.179Z,20.07
2023-04-20T15:18:24.756Z,19.93
2023-04-20T15:23:27.846Z,19.78
2023-04-20T15:28:30.948Z,19.63
2023-04-20T15:33:34.515Z,19.56
2023-04-20T15:38:37.788Z,19.57
2023-04-20T15:43:40.997Z,19.61
2023-04-20T15:48:45.084Z,19.66
2023-04-20T15:53:50.879Z,19.70
2023-04-20T15:58:54.139Z,19.75
2023-04-20T16:03:57.394Z,19.74
2023-04-20T16:09:01.344Z,19.67
2023-04-20T16:14:04.546Z,19.54
2023-04-20T16:19:07.597Z,19.47
2023-04-20T16:24:10.768Z,19.45
2023-04-20T16:29:13.850Z,19.47
2023-04-20T16:34:17.352Z,19.40
2023-04-20T16:39:20.898Z,19.26
2023-04-20T16:44:24.344Z,19.07
2023-04-20T16:49:28.342Z,18.93
2023-04-20T16:54:31.404Z,18.80
2023-04-20T16:59:34.828Z,18.68
2023-04-20T17:04:37.869Z,18.58
2023-04-20T17:09:41.046Z,18.46
2023-04-20T17:14:44.248Z,18.35
2023-04-20T17:19:47.414Z,18.23
2023-04-20T17:24:50.718Z,18.07
2023-04-20T17:29:56.081Z,17.90
2023-04-20T17:34:59.324Z,17.72
2023-04-20T17:40:05.299Z,17.51
2023-04-20T17:45:08.791Z,17.34
2023-04-20T17:50:13.468Z,17.11
2023-04-20T17:55:16.644Z,16.87
2023-04-20T18:00:20.651Z,16.83
2023-04-20T18:05:23.961Z,16.75
2023-04-20T18:10:28.284Z,16.66
2023-04-20T18:15:34.935Z,16.55
2023-04-20T18:20:38.548Z,16.45
2023-04-20T18:25:42.859Z,16.36
2023-04-20T18:30:46.461Z,16.18
2023-04-20T18:35:49.652Z,16.03
2023-04-20T18:40:55.640Z,15.83
2023-04-20T18:45:58.792Z,15.59
2023-04-20T18:51:12.394Z,15.45
2023-04-20T18:56:16.006Z,15.28
2023-04-20T19:01:19.706Z,15.14
2023-04-20T19:06:35.070Z,15.07
2023-04-20T19:11:38.625Z,15.03
2023-04-20T19:16:42.115Z,15.01
2023-04-20T19:21:45.740Z,14.95
2023-04-20T19:26:48.873Z,14.87
2023-04-20T19:31:52.431Z,14.76
2023-04-20T19:36:55.649Z,14.61
2023-04-20T19:41:59.257Z,14.47
2023-04-20T19:47:05.238Z,14.33
2023-04-20T19:52:08.639Z,14.20
2023-04-20T19:57:50.039Z,14.06
2023-04-20T20:02:53.537Z,13.92
2023-04-20T20:07:56.853Z,13.80
2023-04-20T20:13:00.287Z,13.71
2023-04-20T20:18:04.446Z,13.62
2023-04-20T20:23:08.134Z,13.60
2023-04-20T20:28:11.510Z,13.58
2023-04-20T20:33:17.967Z,13.50
2023-04-20T20:38:31.169Z,13.48
2023-04-20T20:43:34.844Z,13.49
2023-04-20T20:48:38.103Z,13.47
2023-04-20T20:53:41.234Z,13.40
2023-04-20T20:58:54.404Z,13.32
2023-04-20T21:04:00.590Z,13.25
2023-04-20T21:09:24.048Z,13.15
2023-04-20T21:14:27.592Z,13.14
2023-04-20T21:19:30.974Z,13.21
2023-04-20T21:24:37.106Z,13.24
2023-04-20T21:29:42.660Z,13.23
2023-04-20T21:34:54.989Z,13.23
2023-04-20T21:39:58.382Z,13.22
2023-04-20T21:45:10.104Z,13.25
2023-04-20T21:50:13.572Z,13.24
2023-04-20T21:55:24.552Z,13.21
2023-04-20T22:00:28.324Z,13.20
2023-04-20T22:05:31.846Z,13.21
2023-04-20T22:10:35.675Z,13.21
2023-04-20T22:15:39.069Z,13.16
2023-04-20T22:21:01.464Z,13.10
2023-04-20T22:26:04.790Z,13.04
2023-04-20T22:31:08.195Z,12.95
2023-04-20T22:36:14.701Z,12.84
2023-04-20T22:41:18.495Z,12.73
2023-04-20T22:46:24.043Z,12.58
2023-04-20T22:51:41.760Z,12.47
2023-04-20T22:56:47.752Z,12.41
2023-04-20T23:01:51.199Z,12.40
2023-04-20T23:06:57.871Z,12.35
2023-04-20T23:12:12.404Z,12.29
2023-04-20T23:17:57.478Z,12.25
2023-04-20T23:23:01.127Z,12.22
2023-04-20T23:28:05.001Z,12.24
2023-04-20T23:33:08.844Z,12.25
2023-04-20T23:38:12.685Z,12.24
2023-04-20T23:43:18.979Z,12.22
2023-04-20T23:48:22.453Z,12.18
2023-04-20T23:53:46.446Z,12.09
2023-04-20T23:58:52.855Z,12.00
